KRNT - Renton
Updated: Fri, 21-Jul-2017 4:53am PDT

 Wind from calm
Wind: Calm
Temperature: 55°F , 13°C
Dew Point: 54°F , 12°C
Humidity: 94%
Barometer: 30.13 inHg , 1020.3 hPa
Visibility: 9 miles , 14 km
2017/07/21 11:53 KRNT 211153Z AUTO 00000KT 9SM CLR 13/12 A3013 RMK AO2 SLP209 T01330122 10183 20133 53001
KBFI - Seattle-Boeing
Updated: Fri, 21-Jul-2017 4:53am PDT

 Wind from calm
Wind: Calm
Temperature: 59°F , 15°C
Dew Point: 55°F , 13°C
Humidity: 88%
Barometer: 30.13 inHg , 1020.3 hPa
Visibility: 10 miles , 16 km
2017/07/21 11:53 KBFI 211153Z 00000KT 10SM CLR 15/13 A3013 RMK AO2 SLP203 T01500128 10183 20150 55000
 
KSEA - Seattle
Updated: Fri, 21-Jul-2017 4:53am PDT

 Wind from S
Wind: S 3 mph , 6 km/h
Temperature: 55°F , 13°C
Dew Point: 54°F , 12°C
Humidity: 94%
Barometer: 30.14 inHg , 1020.7 hPa
Visibility: 10 miles , 16 km
Cloud details: 5000 ft
25000 ft
2017/07/21 11:53 KSEA 211153Z 17003KT 10SM FEW050 BKN250 13/12 A3014 RMK AO2 SLP210 T01330117 10178 20133 55000
KSMP - Stampede Pass
Updated: Fri, 21-Jul-2017 5:40am PDT
Mist, Overcast
Mist, Overcast
 Wind from calm
Wind: Calm
Temperature: 46°F , 8°C
Dew Point: 45°F , 7°C
Humidity: 93%
Barometer: 30.17 inHg , 1021.7 hPa
Visibility: 2 1/2 miles , 2 km
Cloud details: 200 ft
1700 ft
2017/07/21 12:40 KSMP 211240Z AUTO 00000KT 2 1/2SM BR BKN002 OVC017 08/07 A3017 RMK AO2 T00780072